Time;durP1;ratioP1;P1;durP2;ratioP2;P2;SDS_P1;SDS_P2;PMS_P1;PMS_P2;Temp;Humidity;BMP_temperature;BMP_pressure;BME280_temperature;BME280_humidity;BME280_pressure;Samples;Min_cycle;Max_cycle;Signal;HPM_P1;HPM_P2
2024/01/28 00:01:37;;;;;;;5.03;2.17;;;;;;;-145.69;65.42;52392.91;5135963;27;20209;-80
2024/01/28 00:04:04;;;;;;;4.60;2.20;;;;;;;-145.69;64.93;52384.97;5135032;27;20540;-78
2024/01/28 00:06:30;;;;;;;7.00;1.77;;;;;;;-145.69;64.85;52420.63;5135651;27;20197;-78
2024/01/28 00:08:58;;;;;;;2.87;2.00;;;;;;;-145.69;64.64;52392.91;5135400;27;20205;-80
2024/01/28 00:11:24;;;;;;;4.70;1.90;;;;;;;-145.69;64.67;52392.91;5135622;27;20258;-80
2024/01/28 00:13:51;;;;;;;6.67;1.90;;;;;;;-145.69;64.68;52396.84;5135458;27;20197;-80
2024/01/28 00:16:18;;;;;;;3.80;1.87;;;;;;;-145.69;64.71;52384.97;5135365;27;20201;-79
2024/01/28 00:18:45;;;;;;;3.20;1.90;;;;;;;-145.69;64.61;52420.63;5135060;27;20204;-79
2024/01/28 00:21:11;;;;;;;1.90;1.50;;;;;;;-145.69;64.56;52398.84;5135503;27;20193;-79
2024/01/28 00:23:38;;;;;;;2.30;1.40;;;;;;;-145.69;64.96;52410.72;5134714;27;20669;-79
2024/01/28 00:26:07;;;;;;;2.27;1.50;;;;;;;-145.69;64.31;52400.81;5135357;27;20287;-78
2024/01/28 00:28:33;;;;;;;1.80;1.60;;;;;;;-145.69;64.41;52412.69;5134747;27;20257;-78
2024/01/28 00:31:00;;;;;;;4.53;1.50;;;;;;;-145.69;64.51;52438.44;5135084;27;20229;-79
2024/01/28 00:33:29;;;;;;;3.20;1.53;;;;;;;-145.69;63.71;52398.84;5134857;27;20203;-79
2024/01/28 00:35:58;;;;;;;2.57;1.50;;;;;;;-145.69;63.74;52383.00;5131206;27;20299;-79
2024/01/28 00:38:28;;;;;;;2.07;1.40;;;;;;;-145.69;62.96;52394.88;5134260;27;20193;-79
2024/01/28 00:40:54;;;;;;;4.37;1.40;;;;;;;-145.69;62.84;52424.59;5134779;27;20288;-79
2024/01/28 00:43:30;;;;;;;3.23;1.30;;;;;;;-145.69;62.04;52420.63;5135030;27;20204;-79
2024/01/28 00:45:56;;;;;;;2.70;1.30;;;;;;;-145.69;61.95;52406.75;5134272;27;20664;-79
2024/01/28 00:48:23;;;;;;;1.60;1.30;;;;;;;-145.69;60.85;52400.81;5135017;27;20200;-78
2024/01/28 00:50:49;;;;;;;2.03;1.27;;;;;;;-145.69;61.56;52392.91;5134391;27;20305;-79
2024/01/28 00:53:18;;;;;;;2.40;1.17;;;;;;;-145.69;61.17;52388.94;5134862;27;20196;-79
2024/01/28 00:55:44;;;;;;;1.90;1.17;;;;;;;-145.69;59.66;52384.97;5131913;27;20248;-78
2024/01/28 00:58:12;;;;;;;1.30;1.20;;;;;;;-145.69;60.51;52381.00;5115834;27;20651;-79
2024/01/28 01:00:41;;;;;;;1.93;1.40;;;;;;;-145.69;61.39;52402.78;5134596;27;20215;-79
2024/01/28 01:03:07;;;;;;;1.50;0.90;;;;;;;-145.69;59.84;52404.78;5134150;27;20197;-78
2024/01/28 01:05:36;;;;;;;1.20;1.10;;;;;;;-145.69;60.78;52377.06;5133907;27;20200;-78
2024/01/28 01:08:05;;;;;;;1.50;1.13;;;;;;;-145.69;59.96;52404.78;5134227;27;20197;-78
2024/01/28 01:10:31;;;;;;;3.73;1.50;;;;;;;-145.69;59.71;52386.97;5134325;27;20304;-78
2024/01/28 01:12:58;;;;;;;3.40;1.30;;;;;;;-145.69;59.95;52383.00;5134263;27;20200;-78
2024/01/28 01:15:24;;;;;;;4.03;1.10;;;;;;;-145.69;60.29;52388.94;5134365;27;20196;-78
2024/01/28 01:17:52;;;;;;;1.20;1.10;;;;;;;-145.69;60.07;52404.78;5133598;27;20189;-78
2024/01/28 01:20:19;;;;;;;1.30;1.20;;;;;;;-145.69;60.31;52381.00;5134005;27;20663;-78
2024/01/28 01:22:45;;;;;;;0.97;0.90;;;;;;;-145.69;60.51;52353.28;5133901;27;20189;-78
2024/01/28 01:25:13;;;;;;;1.10;1.00;;;;;;;-145.69;60.46;52381.00;5133759;27;20196;-78
2024/01/28 01:27:39;;;;;;;2.50;1.20;;;;;;;-145.69;60.59;52394.88;5134072;27;20320;-79
2024/01/28 01:30:06;;;;;;;2.53;1.20;;;;;;;-145.69;61.21;52379.03;5132980;27;20689;-79
2024/01/28 01:32:35;;;;;;;1.50;1.30;;;;;;;-145.69;60.90;52375.06;5134071;27;20598;-79
2024/01/28 01:35:03;;;;;;;2.00;1.17;;;;;;;-145.69;61.06;52402.78;5133269;27;20794;-78
2024/01/28 01:37:30;;;;;;;1.90;1.20;;;;;;;-145.69;61.51;52381.00;5132693;27;20760;-79
2024/01/28 01:39:57;;;;;;;3.83;1.47;;;;;;;-145.69;62.09;52377.06;5134085;27;20212;-78
2024/01/28 01:42:23;;;;;;;1.50;1.20;;;;;;;-145.69;61.98;52392.91;5134011;27;20267;-78
2024/01/28 01:44:50;;;;;;;1.27;1.17;;;;;;;-145.69;61.17;52406.75;5133643;27;20192;-78
2024/01/28 01:47:16;;;;;;;1.20;1.10;;;;;;;-145.69;60.45;52373.09;5134083;27;20639;-78
2024/01/28 01:49:43;;;;;;;2.97;1.10;;;;;;;-145.69;60.59;52373.09;5133285;27;20247;-78
2024/01/28 01:52:13;;;;;;;1.53;1.20;;;;;;;-145.69;60.91;52384.97;5133449;27;20197;-78
2024/01/28 01:54:40;;;;;;;1.80;1.30;;;;;;;-145.69;61.04;52388.94;5133813;27;20678;-78
2024/01/28 01:57:06;;;;;;;1.30;1.10;;;;;;;-145.69;61.06;52388.94;5144253;27;20200;-79
2024/01/28 01:59:33;;;;;;;1.30;1.07;;;;;;;-145.69;61.21;52392.91;5154235;27;20211;-78
2024/01/28 02:02:02;;;;;;;1.53;1.10;;;;;;;-145.69;61.59;52363.19;5154591;27;20204;-79
2024/01/28 02:04:29;;;;;;;0.90;0.90;;;;;;;-145.69;62.04;52416.66;5133673;27;20303;-78
2024/01/28 02:06:55;;;;;;;6.03;1.23;;;;;;;-145.69;62.05;52384.97;5133443;27;20200;-78
2024/01/28 02:09:23;;;;;;;1.27;1.00;;;;;;;-145.69;62.17;52386.97;5133357;28;20212;-78
2024/01/28 02:11:50;;;;;;;1.17;1.10;;;;;;;-145.69;62.20;52388.94;5132941;28;20193;-78
2024/01/28 02:14:21;;;;;;;2.10;1.27;;;;;;;-145.69;62.47;52396.84;5133615;27;20208;-78
2024/01/28 02:16:50;;;;;;;1.73;1.20;;;;;;;-145.69;62.39;52410.72;5132941;28;20189;-78
2024/01/28 02:19:17;;;;;;;1.73;1.43;;;;;;;-145.69;62.03;52426.56;5133514;28;20659;-78
2024/01/28 02:21:43;;;;;;;1.03;1.00;;;;;;;-145.69;61.98;52400.81;5133435;27;20207;-77
2024/01/28 02:24:13;;;;;;;2.53;1.20;;;;;;;-145.69;61.76;52396.84;5133342;27;20208;-79
2024/01/28 02:26:40;;;;;;;1.20;1.10;;;;;;;-145.69;61.92;52379.03;5133115;27;20299;-78
2024/01/28 02:29:06;;;;;;;1.33;1.00;;;;;;;-145.69;61.42;52400.81;5133555;27;20207;-78
2024/01/28 02:31:33;;;;;;;1.17;1.03;;;;;;;-145.69;61.51;52383.00;5133324;27;20231;-78
2024/01/28 02:33:59;;;;;;;4.53;1.47;;;;;;;-145.69;61.99;52390.91;5133104;27;20203;-78
2024/01/28 02:36:26;;;;;;;2.60;1.40;;;;;;;-145.69;62.24;52414.69;5132724;28;20284;-78
2024/01/28 02:38:54;;;;;;;3.67;1.17;;;;;;;-145.69;62.14;52361.22;5132885;27;20197;-78
2024/01/28 02:41:22;;;;;;;1.83;1.10;;;;;;;-145.69;62.21;52408.75;5136277;27;20201;-78
2024/01/28 02:43:49;;;;;;;1.90;1.13;;;;;;;-145.69;61.94;52402.78;5137186;27;20201;-78
2024/01/28 02:46:15;;;;;;;3.27;1.17;;;;;;;-145.69;62.67;52402.78;5136947;27;20663;-79
2024/01/28 02:48:42;;;;;;;1.53;1.43;;;;;;;-145.69;63.02;52428.53;5136803;27;20554;-78
2024/01/28 02:51:08;;;;;;;2.10;1.27;;;;;;;-145.69;63.37;52412.69;5136946;27;20262;-78
2024/01/28 02:53:35;;;;;;;1.40;1.30;;;;;;;-145.69;62.92;52408.75;5136802;27;20597;-78
2024/01/28 02:56:01;;;;;;;1.07;1.00;;;;;;;-145.69;63.42;52381.00;5137202;27;20207;-78
2024/01/28 02:58:31;;;;;;;1.20;1.10;;;;;;;-145.69;63.20;52392.91;5121783;27;20201;-78
2024/01/28 03:00:58;;;;;;;1.47;1.03;;;;;;;-145.69;63.52;52390.91;5116091;28;20193;-78
2024/01/28 03:03:25;;;;;;;1.50;1.33;;;;;;;-145.69;63.45;52396.84;5130185;27;20685;-78
2024/01/28 03:05:51;;;;;;;2.90;1.37;;;;;;;-145.69;64.49;52388.94;5136859;27;20193;-78
2024/01/28 03:08:17;;;;;;;1.10;1.00;;;;;;;-145.69;63.95;52410.72;5136511;27;20249;-78
2024/01/28 03:10:44;;;;;;;1.37;1.27;;;;;;;-145.69;63.74;52402.78;5136640;27;20235;-78
2024/01/28 03:13:10;;;;;;;4.27;1.20;;;;;;;-145.69;63.37;52408.75;5136931;27;20196;-77
2024/01/28 03:15:38;;;;;;;2.80;1.00;;;;;;;-145.69;63.50;52386.97;5136030;27;20197;-79
2024/01/28 03:18:05;;;;;;;1.37;1.20;;;;;;;-145.69;63.84;52406.75;5136388;27;20212;-78
2024/01/28 03:20:32;;;;;;;1.20;1.10;;;;;;;-145.69;63.40;52424.59;5136380;27;20197;-79
2024/01/28 03:22:58;;;;;;;1.00;0.90;;;;;;;-145.69;63.52;52410.72;5136472;27;20212;-78
2024/01/28 03:25:25;;;;;;;1.20;1.10;;;;;;;-145.69;63.06;52400.81;5136523;27;20201;-78
2024/01/28 03:27:52;;;;;;;2.13;1.10;;;;;;;-145.69;63.46;52426.56;5136492;27;20207;-78
2024/01/28 03:30:19;;;;;;;1.33;1.10;;;;;;;-145.69;62.90;52416.66;5136386;27;20227;-78
2024/01/28 03:32:46;;;;;;;1.43;1.10;;;;;;;-145.69;62.72;52404.78;5136451;27;20193;-79
2024/01/28 03:35:13;;;;;;;1.03;0.90;;;;;;;-145.69;62.41;52406.75;5136305;27;20196;-78
2024/01/28 03:37:39;;;;;;;1.20;1.10;;;;;;;-145.69;62.64;52408.75;5136123;27;20210;-78
2024/01/28 03:40:07;;;;;;;1.70;1.00;;;;;;;-145.69;62.67;52402.78;5135877;27;20197;-79
2024/01/28 03:42:33;;;;;;;2.20;0.93;;;;;;;-145.69;62.78;52418.63;5135881;27;20193;-78
2024/01/28 03:45:00;;;;;;;1.40;1.30;;;;;;;-145.69;62.45;52420.63;5136010;27;20197;-78
2024/01/28 03:47:26;;;;;;;1.00;0.90;;;;;;;-145.69;62.63;52400.81;5136281;27;20204;-78
2024/01/28 03:49:54;;;;;;;1.10;1.00;;;;;;;-145.69;62.46;52412.69;5135750;27;20243;-78
2024/01/28 03:52:22;;;;;;;1.10;0.97;;;;;;;-145.69;62.48;52422.59;5134966;27;20203;-78
2024/01/28 03:54:49;;;;;;;1.00;0.93;;;;;;;-145.69;62.76;52428.53;5135817;27;20214;-78
2024/01/28 03:57:15;;;;;;;2.20;1.00;;;;;;;-145.69;62.85;52434.47;5135467;27;20220;-78
2024/01/28 03:59:42;;;;;;;3.80;1.13;;;;;;;-145.69;62.85;52416.66;5135651;27;20196;-79
2024/01/28 04:02:08;;;;;;;2.23;1.00;;;;;;;-145.69;62.44;52384.97;5135605;27;20193;-78
2024/01/28 04:04:35;;;;;;;1.60;1.00;;;;;;;-145.69;62.84;52420.63;5135909;27;20196;-78
2024/01/28 04:07:03;;;;;;;0.90;0.90;;;;;;;-145.69;62.83;52402.78;5135868;27;20207;-78
2024/01/28 04:09:29;;;;;;;1.27;1.17;;;;;;;-145.69;62.84;52424.59;5135131;27;20204;-78
2024/01/28 04:11:56;;;;;;;2.53;0.97;;;;;;;-145.69;62.68;52446.38;5135594;27;20225;-78
2024/01/28 04:14:23;;;;;;;1.27;1.17;;;;;;;-145.69;62.62;52422.59;5135244;27;20739;-78
2024/01/28 04:16:49;;;;;;;2.03;1.00;;;;;;;-145.69;62.88;52384.97;5135415;27;20204;-78
2024/01/28 04:19:16;;;;;;;1.60;1.20;;;;;;;-145.69;62.50;52440.44;5135365;27;20200;-78
2024/01/28 04:21:42;;;;;;;1.30;1.17;;;;;;;-145.69;62.54;52432.50;5135416;27;20196;-78
2024/01/28 04:24:10;;;;;;;1.20;1.10;;;;;;;-145.69;62.48;52418.63;5135348;27;20204;-78
2024/01/28 04:26:37;;;;;;;1.00;1.00;;;;;;;-145.69;62.48;52430.53;5135385;27;20204;-78
2024/01/28 04:29:03;;;;;;;1.00;0.90;;;;;;;-145.69;62.31;52404.78;5134892;27;20686;-78
2024/01/28 04:31:30;;;;;;;1.30;1.20;;;;;;;-145.69;62.59;52400.81;5134370;27;20224;-78
2024/01/28 04:33:57;;;;;;;1.27;1.17;;;;;;;-145.69;62.39;52434.47;5134778;27;20201;-78
2024/01/28 04:36:25;;;;;;;0.93;0.80;;;;;;;-145.69;62.47;52434.47;5134974;27;20189;-78
2024/01/28 04:38:52;;;;;;;0.90;0.90;;;;;;;-145.69;61.88;52416.66;5134820;27;20292;-78
2024/01/28 04:41:20;;;;;;;1.33;0.93;;;;;;;-145.69;62.30;52396.84;5135063;27;20197;-78
2024/01/28 04:43:46;;;;;;;0.80;0.80;;;;;;;-145.69;61.88;52418.63;5134875;27;20213;-78
2024/01/28 04:46:14;;;;;;;0.90;0.90;;;;;;;-145.69;61.85;52412.69;5134615;27;20554;-78
2024/01/28 04:48:41;;;;;;;1.23;1.03;;;;;;;-145.69;62.19;52392.91;5114304;28;20660;-79
2024/01/28 04:51:10;;;;;;;1.00;0.90;;;;;;;-145.69;62.22;52410.72;5114120;28;20278;-78
2024/01/28 04:53:37;;;;;;;0.90;0.80;;;;;;;-145.69;61.67;52428.53;5122012;27;20201;-78
2024/01/28 04:56:05;;;;;;;1.10;1.00;;;;;;;-145.69;61.34;52408.75;5134977;27;20254;-78
2024/01/28 04:58:32;;;;;;;0.77;0.77;;;;;;;-145.69;61.46;52452.31;5134639;27;20204;-78
2024/01/28 05:00:59;;;;;;;0.80;0.80;;;;;;;-145.69;61.51;52426.56;5134515;27;20207;-78
2024/01/28 05:03:25;;;;;;;1.30;1.07;;;;;;;-145.69;61.94;52418.63;5131948;27;20421;-78
2024/01/28 05:05:52;;;;;;;1.67;1.10;;;;;;;-145.69;61.81;52410.72;5134513;27;20430;-78
2024/01/28 05:08:19;;;;;;;0.93;0.93;;;;;;;-145.69;61.49;52428.53;5134658;27;20224;-77
2024/01/28 05:10:45;;;;;;;0.83;0.83;;;;;;;-145.69;61.60;52424.59;5133427;27;20310;-78
2024/01/28 05:13:12;;;;;;;1.93;1.00;;;;;;;-145.69;62.05;52418.63;5134375;27;20681;-78
2024/01/28 05:15:40;;;;;;;0.80;0.80;;;;;;;-145.69;62.01;52381.00;5134165;27;20246;-78
2024/01/28 05:18:09;;;;;;;1.47;1.10;;;;;;;-145.69;62.11;52420.63;5134003;27;20713;-78
2024/01/28 05:20:35;;;;;;;0.90;0.90;;;;;;;-145.69;62.06;52436.47;5134102;27;20373;-78
2024/01/28 05:23:02;;;;;;;1.50;1.40;;;;;;;-145.69;61.95;52420.63;5133800;27;20204;-78
2024/01/28 05:25:28;;;;;;;1.33;1.23;;;;;;;-145.69;61.70;52400.81;5133772;27;20203;-78
2024/01/28 05:27:55;;;;;;;1.20;1.10;;;;;;;-145.69;61.86;52394.88;5133961;27;20200;-77
2024/01/28 05:30:22;;;;;;;0.80;0.80;;;;;;;-145.69;60.89;52396.84;5133954;27;20196;-77
2024/01/28 05:32:49;;;;;;;1.00;1.00;;;;;;;-145.69;59.68;52418.63;5133410;27;20195;-78
2024/01/28 05:35:16;;;;;;;1.17;1.00;;;;;;;-145.69;59.86;52396.84;5134036;27;20605;-78
2024/01/28 05:37:43;;;;;;;0.83;0.83;;;;;;;-145.69;59.59;52418.63;5133223;27;20199;-77
2024/01/28 05:40:11;;;;;;;0.80;0.80;;;;;;;-145.69;58.57;52440.44;5134031;27;20201;-77
2024/01/28 05:42:37;;;;;;;0.97;0.97;;;;;;;-145.69;58.24;52424.59;5133860;27;20200;-79
2024/01/28 05:45:04;;;;;;;0.80;0.80;;;;;;;-145.69;58.91;52432.50;5133160;27;20204;-78
2024/01/28 05:47:31;;;;;;;1.10;0.90;;;;;;;-145.69;58.47;52400.81;5133747;27;20208;-78
2024/01/28 05:49:58;;;;;;;0.80;0.80;;;;;;;-145.69;58.11;52406.75;5133654;27;20238;-78
2024/01/28 05:52:25;;;;;;;0.70;0.70;;;;;;;-145.69;57.98;52388.94;5133452;27;20220;-78
2024/01/28 05:54:51;;;;;;;0.87;0.87;;;;;;;-145.69;58.53;52432.50;5133362;27;20205;-78
2024/01/28 05:57:18;;;;;;;1.07;0.97;;;;;;;-145.69;58.48;52392.91;5133778;27;20556;-78
2024/01/28 05:59:44;;;;;;;1.00;1.00;;;;;;;-145.69;56.68;52392.91;5133057;27;20204;-79
2024/01/28 06:02:11;;;;;;;0.90;0.90;;;;;;;-145.69;57.18;52412.69;5133089;27;20249;-79
2024/01/28 06:04:37;;;;;;;1.03;1.00;;;;;;;-145.69;56.17;52416.66;5133234;27;20204;-78
2024/01/28 06:07:05;;;;;;;0.70;0.70;;;;;;;-145.69;57.05;52400.81;5133496;27;20201;-78
2024/01/28 06:09:34;;;;;;;0.70;0.70;;;;;;;-145.69;57.54;52404.78;5133089;27;20206;-77
2024/01/28 06:12:00;;;;;;;1.00;0.70;;;;;;;-145.69;57.70;52400.81;5133520;27;20766;-77
2024/01/28 06:14:27;;;;;;;1.43;1.10;;;;;;;-145.69;56.09;52379.03;5132916;27;20195;-77
2024/01/28 06:16:54;;;;;;;1.27;0.90;;;;;;;-145.69;54.41;52396.84;5133282;28;20669;-77
2024/01/28 06:19:20;;;;;;;0.80;0.73;;;;;;;-145.69;55.38;52402.78;5133746;27;20201;-78
2024/01/28 06:21:47;;;;;;;0.97;0.90;;;;;;;-145.69;55.10;52406.75;5133349;27;20207;-78
2024/01/28 06:24:14;;;;;;;0.87;0.87;;;;;;;-145.69;55.32;52388.94;5133307;28;20197;-78
2024/01/28 06:26:41;;;;;;;0.70;0.70;;;;;;;-145.69;56.07;52416.66;5133272;27;20547;-78
2024/01/28 06:29:08;;;;;;;1.03;0.93;;;;;;;-145.69;55.71;52410.72;5133064;28;20189;-78
2024/01/28 06:31:34;;;;;;;1.10;0.80;;;;;;;-145.69;56.20;52392.91;5132934;27;20224;-78
2024/01/28 06:34:01;;;;;;;0.87;0.83;;;;;;;-145.69;56.49;52392.91;5133623;27;20211;-77
2024/01/28 06:36:27;;;;;;;0.70;0.70;;;;;;;-145.69;56.00;52432.50;5133186;27;20197;-77
2024/01/28 06:38:54;;;;;;;1.00;1.00;;;;;;;-145.69;56.49;52384.97;5133368;27;20548;-77
2024/01/28 06:41:22;;;;;;;0.80;0.80;;;;;;;-145.69;56.13;52406.75;5132930;27;20232;-77
2024/01/28 06:43:49;;;;;;;0.87;0.87;;;;;;;-145.69;55.77;52388.94;5132920;28;20201;-78
2024/01/28 06:46:16;;;;;;;0.80;0.80;;;;;;;-145.69;55.70;52408.75;5132781;27;20649;-77
2024/01/28 06:48:43;;;;;;;0.80;0.80;;;;;;;-145.69;55.57;52430.53;5133438;27;20250;-77
2024/01/28 06:51:09;;;;;;;0.97;0.97;;;;;;;-145.69;54.42;52396.84;5132900;28;20243;-78
2024/01/28 06:53:37;;;;;;;0.90;0.90;;;;;;;-145.69;53.92;52381.00;5133045;27;20589;-77
2024/01/28 06:56:04;;;;;;;0.77;0.77;;;;;;;-145.69;53.13;52418.63;5132954;28;20663;-78
2024/01/28 06:58:34;;;;;;;0.77;0.73;;;;;;;-145.69;51.17;52386.97;5132589;27;20659;-77
2024/01/28 07:01:01;;;;;;;0.97;0.97;;;;;;;-145.69;51.46;52408.75;5113050;28;20206;-78
2024/01/28 07:03:27;;;;;;;0.97;0.97;;;;;;;-145.69;52.24;52388.94;5132988;27;20208;-78
2024/01/28 07:05:54;;;;;;;0.90;0.90;;;;;;;-145.69;53.20;52412.69;5133057;27;20201;-78
2024/01/28 07:08:20;;;;;;;0.80;0.80;;;;;;;-145.69;52.41;52424.59;5132640;27;20626;-78
2024/01/28 07:10:47;;;;;;;0.90;0.90;;;;;;;-145.69;52.71;52367.16;5132903;27;20197;-78
2024/01/28 07:13:14;;;;;;;0.70;0.70;;;;;;;-145.69;53.23;52386.97;5132800;28;20311;-78
2024/01/28 07:15:44;;;;;;;1.77;0.80;;;;;;;-145.69;52.08;52394.88;5132815;28;20201;-79
2024/01/28 07:18:10;;;;;;;0.73;0.73;;;;;;;-145.69;52.83;52396.84;5132349;27;20189;-78
2024/01/28 07:20:37;;;;;;;0.73;0.60;;;;;;;-145.69;53.25;52400.81;5132654;28;20618;-78
2024/01/28 07:23:05;;;;;;;1.07;1.00;;;;;;;-145.69;53.78;52386.97;5132702;28;20208;-78
2024/01/28 07:25:32;;;;;;;0.87;0.87;;;;;;;-145.69;52.16;52392.91;5132958;27;20234;-78
2024/01/28 07:27:58;;;;;;;0.83;0.83;;;;;;;-145.69;53.41;52394.88;5134832;27;20203;-79
2024/01/28 07:30:25;;;;;;;1.00;0.90;;;;;;;-145.69;53.23;52377.06;5136163;27;20196;-79
2024/01/28 07:32:53;;;;;;;0.80;0.80;;;;;;;-145.69;52.02;52384.97;5135872;27;20220;-79
2024/01/28 07:35:20;;;;;;;0.80;0.80;;;;;;;-145.69;51.58;52388.94;5136245;27;20196;-78
2024/01/28 07:37:46;;;;;;;1.00;0.87;;;;;;;-145.69;51.89;52371.13;5136186;27;20208;-79
2024/01/28 07:40:13;;;;;;;0.83;0.83;;;;;;;-145.69;52.46;52422.59;5135796;27;20212;-78
2024/01/28 07:42:39;;;;;;;1.17;0.90;;;;;;;-145.69;49.61;52371.13;5136146;27;20604;-79
2024/01/28 07:45:06;;;;;;;1.10;1.00;;;;;;;-145.69;50.59;52386.97;5135784;27;20207;-78
2024/01/28 07:47:33;;;;;;;1.00;1.00;;;;;;;-145.69;49.94;52383.00;5135696;27;20197;-79
2024/01/28 07:50:01;;;;;;;0.87;0.80;;;;;;;-145.69;48.45;52400.81;5135734;27;20239;-80
2024/01/28 07:52:27;;;;;;;1.10;0.90;;;;;;;-145.69;50.56;52384.97;5136100;27;20225;-79
2024/01/28 07:54:54;;;;;;;0.90;0.90;;;;;;;-145.69;51.57;52365.16;5135781;27;20201;-77
2024/01/28 07:57:21;;;;;;;1.20;1.10;;;;;;;-145.69;50.19;52384.97;5135717;27;20200;-78
2024/01/28 07:59:47;;;;;;;1.40;0.90;;;;;;;-145.69;50.60;52377.06;5135868;27;20647;-78
2024/01/28 08:02:14;;;;;;;1.10;0.73;;;;;;;-145.69;48.81;52384.97;5135528;27;20280;-78
2024/01/28 08:04:40;;;;;;;1.20;1.10;;;;;;;-145.69;49.16;52337.44;5136068;27;20196;-79
2024/01/28 08:07:08;;;;;;;1.37;0.80;;;;;;;-145.69;48.66;52367.16;5135579;27;20203;-79
2024/01/28 08:09:36;;;;;;;1.27;0.90;;;;;;;-145.69;47.76;52388.94;5135323;27;20593;-79
2024/01/28 08:12:03;;;;;;;0.80;0.80;;;;;;;-145.69;47.67;52377.06;5135588;27;20229;-81
2024/01/28 08:14:30;;;;;;;0.83;0.83;;;;;;;-145.69;45.89;52384.97;5135489;27;20201;-79
2024/01/28 08:16:57;;;;;;;0.80;0.80;;;;;;;-145.69;45.72;52347.34;5135560;27;20283;-79
2024/01/28 08:19:25;;;;;;;0.87;0.87;;;;;;;-145.69;45.95;52390.91;5135393;27;20220;-77
2024/01/28 08:21:52;;;;;;;0.60;0.60;;;;;;;-145.69;43.53;52345.38;5135424;27;20212;-79
2024/01/28 08:24:20;;;;;;;0.90;0.90;;;;;;;-145.69;43.39;52337.44;5135271;27;20200;-79
2024/01/28 08:26:46;;;;;;;1.77;0.87;;;;;;;-145.69;42.54;52369.13;5135091;27;20200;-78
2024/01/28 08:29:15;;;;;;;1.67;0.83;;;;;;;-145.69;41.72;52373.09;5135284;27;20204;-79
2024/01/28 08:31:44;;;;;;;0.77;0.70;;;;;;;-145.69;40.24;52359.22;5134237;27;20220;-79
2024/01/28 08:34:10;;;;;;;0.80;0.80;;;;;;;-145.69;39.83;52365.16;5134773;27;20564;-79
2024/01/28 08:36:37;;;;;;;1.07;0.90;;;;;;;-145.69;40.06;52331.50;5135162;27;20204;-79
2024/01/28 08:39:05;;;;;;;0.83;0.83;;;;;;;-145.69;40.77;52363.19;5134810;27;20197;-78
2024/01/28 08:41:33;;;;;;;1.53;0.90;;;;;;;-145.69;38.84;52343.38;5134936;27;20575;-77
2024/01/28 08:44:00;;;;;;;0.97;0.80;;;;;;;-145.69;39.90;52361.22;5135136;27;20616;-78
2024/01/28 08:46:27;;;;;;;0.60;0.60;;;;;;;-145.69;39.42;52367.16;5134776;27;20220;-78
2024/01/28 08:48:53;;;;;;;1.37;0.80;;;;;;;-145.69;39.66;52375.06;5134398;27;20218;-78
2024/01/28 08:51:20;;;;;;;0.87;0.87;;;;;;;-145.69;38.77;52351.31;5134872;27;20220;-78
2024/01/28 08:53:46;;;;;;;0.70;0.70;;;;;;;-145.69;39.00;52369.13;5134555;27;20224;-78
2024/01/28 08:56:13;;;;;;;0.60;0.60;;;;;;;-145.69;37.23;52373.09;5134538;27;20647;-79
2024/01/28 08:58:41;;;;;;;1.27;0.90;;;;;;;-145.69;37.31;52319.63;5134210;27;20184;-78
2024/01/28 09:01:09;;;;;;;0.60;0.60;;;;;;;-145.69;35.69;52293.88;5115672;27;20205;-79
2024/01/28 09:03:35;;;;;;;1.07;0.97;;;;;;;-145.69;35.83;52325.56;5134353;27;20207;-78
2024/01/28 09:06:05;;;;;;;1.00;0.70;;;;;;;-145.69;35.58;52309.72;5134650;27;20201;-78
2024/01/28 09:08:31;;;;;;;0.77;0.77;;;;;;;-145.69;35.16;52339.44;5134113;27;20666;-78
2024/01/28 09:10:58;;;;;;;0.87;0.80;;;;;;;-145.69;35.29;52329.53;5134242;27;20201;-77
2024/01/28 09:13:25;;;;;;;0.80;0.80;;;;;;;-145.69;35.87;52325.56;5134296;27;20231;-78
2024/01/28 09:15:54;;;;;;;1.70;0.90;;;;;;;-145.69;35.67;52305.75;5134405;27;20201;-79
2024/01/28 09:18:20;;;;;;;0.97;0.70;;;;;;;-145.69;35.21;52357.25;5133922;27;20201;-78
2024/01/28 09:20:47;;;;;;;0.70;0.70;;;;;;;-145.69;34.63;52329.53;5134204;27;20655;-78
2024/01/28 09:23:16;;;;;;;0.77;0.70;;;;;;;-145.69;34.54;52321.59;5133660;27;20722;-78
2024/01/28 09:25:42;;;;;;;0.60;0.60;;;;;;;-145.69;34.46;52333.47;5134193;27;20200;-78
2024/01/28 09:28:09;;;;;;;0.70;0.60;;;;;;;-145.69;33.53;52282.00;5134145;27;20205;-78
2024/01/28 09:30:36;;;;;;;0.80;0.67;;;;;;;-145.69;33.60;52309.72;5133613;27;20607;-78
2024/01/28 09:33:07;;;;;;;0.60;0.57;;;;;;;-145.69;34.47;52335.47;5121650;27;20307;-78
2024/01/28 09:35:33;;;;;;;0.60;0.60;;;;;;;-145.69;34.11;52280.00;5133977;27;20287;-79
2024/01/28 09:38:04;;;;;;;0.77;0.50;;;;;;;-145.69;33.47;52321.59;5134142;27;20227;-78
2024/01/28 09:40:31;;;;;;;0.57;0.57;;;;;;;-145.69;33.15;52289.91;5133881;27;20207;-78
2024/01/28 09:43:03;;;;;;;0.60;0.57;;;;;;;-145.69;32.95;52293.88;5133639;27;20200;-78
2024/01/28 09:45:30;;;;;;;1.43;0.60;;;;;;;-145.69;33.88;52246.34;5133792;27;20196;-78
2024/01/28 09:48:00;;;;;;;0.77;0.77;;;;;;;-145.69;33.68;52325.56;5133567;27;20287;-78
2024/01/28 09:50:28;;;;;;;1.07;0.60;;;;;;;-145.69;33.37;52276.06;5132505;27;20275;-78
2024/01/28 09:52:55;;;;;;;0.70;0.70;;;;;;;-145.69;32.70;52274.06;5133652;27;20594;-78
2024/01/28 09:55:21;;;;;;;1.00;0.70;;;;;;;-145.69;32.35;52274.06;5133743;27;20551;-78
2024/01/28 09:57:50;;;;;;;0.60;0.60;;;;;;;-145.69;32.48;52289.91;5133132;27;20288;-78
2024/01/28 10:00:18;;;;;;;0.80;0.50;;;;;;;-145.69;32.71;52280.00;5133243;27;20200;-79
2024/01/28 10:02:44;;;;;;;2.00;1.07;;;;;;;-145.69;32.34;52291.91;5131968;27;20200;-78
2024/01/28 10:05:11;;;;;;;3.43;1.43;;;;;;;-145.69;34.75;52307.75;5133638;27;20717;-79
2024/01/28 10:07:50;;;;;;;2.83;1.20;;;;;;;-145.69;34.25;52258.22;5133347;27;20257;-79
2024/01/28 10:10:17;;;;;;;3.47;2.07;;;;;;;-145.69;35.83;52297.84;5133217;27;20200;-79
2024/01/28 10:12:46;;;;;;;3.00;1.60;;;;;;;-145.69;37.52;52278.03;5133693;27;20227;-79
2024/01/28 10:15:16;;;;;;;3.47;1.57;;;;;;;-145.69;38.10;52291.91;5133309;27;20278;-79
2024/01/28 10:17:47;;;;;;;2.77;1.60;;;;;;;-145.69;38.55;52262.19;5132826;27;20197;-79
2024/01/28 10:20:14;;;;;;;2.30;1.57;;;;;;;-145.69;39.43;52278.03;5133503;27;20192;-79
2024/01/28 10:22:43;;;;;;;3.57;1.73;;;;;;;-145.69;39.45;52252.28;5133138;27;20200;-80
2024/01/28 10:25:15;;;;;;;3.53;2.13;;;;;;;-145.69;39.80;52254.28;5133627;28;20197;-79
2024/01/28 10:27:41;;;;;;;2.80;1.70;;;;;;;-145.69;39.78;52262.19;5133258;28;20201;-81
2024/01/28 10:30:10;;;;;;;2.90;1.50;;;;;;;-145.69;40.44;52321.59;5132973;28;20200;-80
2024/01/28 10:32:37;;;;;;;4.23;1.90;;;;;;;-145.69;39.86;52285.97;5132294;27;20251;-80
2024/01/28 10:35:05;;;;;;;3.30;1.67;;;;;;;-145.69;40.68;52276.06;5130472;27;20200;-80
2024/01/28 10:37:33;;;;;;;2.93;1.60;;;;;;;-145.69;40.65;52282.00;5132941;27;20596;-80
2024/01/28 10:40:04;;;;;;;6.33;2.07;;;;;;;-145.69;41.33;52291.91;5133130;27;20201;-79
2024/01/28 10:42:36;;;;;;;3.63;1.70;;;;;;;-145.69;40.80;52272.09;5124536;27;20200;-79
2024/01/28 10:45:06;;;;;;;4.13;1.67;;;;;;;-145.69;40.82;52289.91;5133418;28;20197;-80
2024/01/28 10:47:36;;;;;;;3.63;1.80;;;;;;;-145.69;41.08;52299.81;5133524;28;20532;-80
2024/01/28 10:50:17;;;;;;;4.47;2.13;;;;;;;-145.69;41.24;52301.81;5132885;27;20228;-80
2024/01/28 10:52:45;;;;;;;2.77;1.53;;;;;;;-145.69;40.80;52289.91;5133377;27;20229;-81
2024/01/28 10:55:12;;;;;;;5.30;1.60;;;;;;;-145.69;41.06;52262.19;5133342;27;20200;-81
2024/01/28 10:57:41;;;;;;;2.57;1.53;;;;;;;-145.69;41.03;52252.28;5133582;27;20274;-81
2024/01/28 11:00:10;;;;;;;2.80;1.50;;;;;;;-145.69;41.23;52260.22;5132750;27;20277;-82
2024/01/28 11:02:39;;;;;;;1.93;1.33;;;;;;;-145.69;41.26;52270.13;5134657;27;20197;-81
2024/01/28 11:05:07;;;;;;;2.77;1.77;;;;;;;-145.69;41.32;52232.50;5116399;28;20201;-81
2024/01/28 11:07:35;;;;;;;3.33;1.67;;;;;;;-145.69;41.24;52246.34;5116505;28;20193;-81
2024/01/28 11:10:02;;;;;;;1.53;1.40;;;;;;;-145.69;40.96;52272.09;5127653;27;20204;-81
2024/01/28 11:12:29;;;;;;;5.13;2.53;;;;;;;-145.69;41.06;52285.97;5154096;27;20220;-81
2024/01/28 11:15:00;;;;;;;4.30;2.40;;;;;;;-145.69;40.53;52232.50;5148548;27;20270;-81
2024/01/28 11:17:32;;;;;;;4.07;1.90;;;;;;;-145.69;41.15;52278.03;5136907;27;20203;-81